Time;durP1;ratioP1;P1;durP2;ratioP2;P2;SDS_P1;SDS_P2;PMS_P1;PMS_P2;Temp;Humidity;BMP_temperature;BMP_pressure;BME280_temperature;BME280_humidity;BME280_pressure;Samples;Min_cycle;Max_cycle;Signal;HPM_P1;HPM_P2
2023/07/10 00:00:16;;;;;;;1999.90;999.90;;;18.50;99.90;;;;;;5050973;28;20737;-70
2023/07/10 00:02:43;;;;;;;1999.90;999.90;;;18.60;99.90;;;;;;5038151;28;20568;-70
2023/07/10 00:05:14;;;;;;;1999.90;999.90;;;18.60;99.90;;;;;;5029670;28;21040;-70
2023/07/10 00:07:40;;;;;;;1999.90;999.90;;;18.60;99.90;;;;;;5034174;28;20485;-70
2023/07/10 00:10:07;;;;;;;1999.90;999.90;;;18.60;99.90;;;;;;5034089;28;20457;-70
2023/07/10 00:12:33;;;;;;;1999.90;999.90;;;18.60;99.90;;;;;;5036251;28;20044;-70
2023/07/10 00:14:58;;;;;;;1999.90;999.90;;;18.60;99.90;;;;;;5032578;28;20613;-70
2023/07/10 00:17:24;;;;;;;1999.90;999.90;;;18.60;99.90;;;;;;5050822;28;20044;-71
2023/07/10 00:19:50;;;;;;;1999.90;999.90;;;18.60;99.90;;;;;;5032318;28;20046;-70
2023/07/10 00:22:15;;;;;;;1999.90;999.90;;;18.60;99.90;;;;;;5034388;28;20051;-70
2023/07/10 00:24:42;;;;;;;1999.90;999.90;;;18.60;99.90;;;;;;5035905;28;20103;-70
2023/07/10 00:27:12;;;;;;;1999.90;999.90;;;18.60;99.90;;;;;;5033113;28;20063;-70
2023/07/10 00:29:38;;;;;;;1999.90;999.90;;;18.60;99.90;;;;;;5027888;28;20037;-70
2023/07/10 00:32:13;;;;;;;1999.90;999.90;;;18.60;99.90;;;;;;5016701;28;20473;-70
2023/07/10 00:34:39;;;;;;;1999.90;999.90;;;18.50;99.90;;;;;;5020665;28;20041;-70
2023/07/10 00:37:05;;;;;;;1999.90;999.90;;;18.60;99.90;;;;;;5034301;28;20397;-70
2023/07/10 00:39:34;;;;;;;1999.90;999.90;;;18.60;99.90;;;;;;5031784;28;20045;-70
2023/07/10 00:42:21;;;;;;;1999.90;999.90;;;18.60;99.90;;;;;;5050812;28;20452;-70
2023/07/10 00:44:56;;;;;;;1999.90;999.90;;;18.60;99.90;;;;;;5036575;28;20051;-70
2023/07/10 00:47:22;;;;;;;1999.90;999.90;;;18.50;99.90;;;;;;5032883;28;20033;-70
2023/07/10 00:49:53;;;;;;;1999.90;999.90;;;18.50;99.90;;;;;;5031282;28;20036;-70
2023/07/10 00:52:24;;;;;;;1999.90;999.90;;;18.50;99.90;;;;;;5014784;28;20037;-70
2023/07/10 00:54:52;;;;;;;1999.90;999.90;;;18.50;99.90;;;;;;5038734;28;20045;-70
2023/07/10 00:57:43;;;;;;;1999.90;999.90;;;18.40;99.90;;;;;;5045793;28;20043;-70
2023/07/10 01:00:19;;;;;;;1999.90;999.90;;;18.30;99.90;;;;;;5048314;28;20044;-70
2023/07/10 01:02:46;;;;;;;1999.90;999.90;;;18.30;99.90;;;;;;5035403;28;20053;-70
2023/07/10 01:05:12;;;;;;;1999.90;999.90;;;18.30;99.90;;;;;;5030657;28;20151;-70
2023/07/10 01:07:43;;;;;;;1999.90;999.90;;;18.20;99.90;;;;;;5033505;28;20048;-69
2023/07/10 01:10:10;;;;;;;1999.90;999.90;;;18.20;99.90;;;;;;5028281;28;20394;-70
2023/07/10 01:12:38;;;;;;;1999.90;999.90;;;18.20;99.90;;;;;;5029116;28;20531;-70
2023/07/10 01:15:06;;;;;;;1999.90;999.90;;;18.10;99.90;;;;;;5032225;28;20045;-70
2023/07/10 01:17:32;;;;;;;1999.90;999.90;;;18.10;99.90;;;;;;5036900;28;20109;-70
2023/07/10 01:20:01;;;;;;;1999.90;999.90;;;18.00;99.90;;;;;;5017966;28;20044;-70
2023/07/10 01:22:28;;;;;;;1999.90;999.90;;;18.00;99.90;;;;;;5032732;28;20132;-70
2023/07/10 01:24:54;;;;;;;1999.90;999.90;;;17.90;99.90;;;;;;5047618;28;20055;-70
2023/07/10 01:27:21;;;;;;;1999.90;999.90;;;17.90;99.90;;;;;;5033272;28;20041;-70
2023/07/10 01:30:02;;;;;;;1999.90;999.90;;;17.90;99.90;;;;;;5047455;28;20049;-70
2023/07/10 01:32:28;;;;;;;1999.90;999.90;;;17.80;99.90;;;;;;5032157;28;20451;-70
2023/07/10 01:34:57;;;;;;;1999.90;999.90;;;17.80;99.90;;;;;;5032949;28;20391;-70
2023/07/10 01:37:23;;;;;;;1999.90;999.90;;;17.70;99.90;;;;;;5017562;28;20045;-71
2023/07/10 01:39:52;;;;;;;1999.90;999.90;;;17.70;99.90;;;;;;5015248;28;20184;-70
2023/07/10 01:42:18;;;;;;;1999.90;999.90;;;17.70;99.90;;;;;;5036994;28;20523;-70
2023/07/10 01:44:46;;;;;;;1999.90;999.90;;;17.70;99.90;;;;;;5015231;28;20043;-70
2023/07/10 01:47:13;;;;;;;1999.90;999.90;;;17.70;99.90;;;;;;5035719;28;20036;-70
2023/07/10 01:49:46;;;;;;;1999.90;999.90;;;17.70;99.90;;;;;;5017952;28;20103;-70
2023/07/10 01:52:15;;;;;;;1999.90;999.90;;;17.60;99.90;;;;;;5031168;28;20099;-70
2023/07/10 01:54:40;;;;;;;1999.90;999.90;;;17.70;99.90;;;;;;5034707;28;20044;-70
2023/07/10 01:57:07;;;;;;;1999.90;999.90;;;17.70;99.90;;;;;;5016516;28;20558;-70
2023/07/10 01:59:33;;;;;;;1999.90;999.90;;;17.70;99.90;;;;;;5032049;28;20044;-70
2023/07/10 02:02:00;;;;;;;1999.90;999.90;;;17.70;99.90;;;;;;5036362;28;20087;-70
2023/07/10 02:04:26;;;;;;;1999.90;999.90;;;17.80;99.90;;;;;;5031387;28;20057;-70
2023/07/10 02:06:55;;;;;;;1999.90;999.90;;;17.80;99.90;;;;;;5032271;28;20122;-70
2023/07/10 02:09:25;;;;;;;1999.90;999.90;;;17.80;99.90;;;;;;5036139;28;20041;-70
2023/07/10 02:11:51;;;;;;;1999.90;999.90;;;17.70;99.90;;;;;;5030957;28;20765;-71
2023/07/10 02:14:17;;;;;;;1999.90;999.90;;;17.70;99.90;;;;;;5036950;28;20499;-70
2023/07/10 02:16:43;;;;;;;1999.90;999.90;;;17.70;99.90;;;;;;5011524;28;20137;-70
2023/07/10 02:19:10;;;;;;;1999.90;999.90;;;17.70;99.90;;;;;;5015064;28;20033;-70
2023/07/10 02:21:36;;;;;;;1999.90;999.90;;;17.70;99.90;;;;;;5030669;28;20045;-70
2023/07/10 02:24:02;;;;;;;1999.90;999.90;;;17.70;99.90;;;;;;5028947;28;21005;-70
2023/07/10 02:26:29;;;;;;;1999.90;999.90;;;17.70;99.90;;;;;;5031261;28;20036;-70
2023/07/10 02:28:58;;;;;;;1999.90;999.90;;;17.70;99.90;;;;;;5015613;28;20045;-70
2023/07/10 02:31:25;;;;;;;1999.90;999.90;;;17.70;99.90;;;;;;5030889;28;20049;-70
2023/07/10 02:33:50;;;;;;;1999.90;999.90;;;17.70;99.90;;;;;;5016506;28;20040;-70
2023/07/10 02:36:16;;;;;;;1999.90;999.90;;;17.60;99.90;;;;;;5028283;28;20681;-70
2023/07/10 02:38:42;;;;;;;1999.90;999.90;;;17.60;99.90;;;;;;5031296;28;20072;-70
2023/07/10 02:41:08;;;;;;;1999.90;999.90;;;17.60;99.90;;;;;;5028534;28;20124;-70
2023/07/10 02:43:34;;;;;;;1999.90;999.90;;;17.60;99.90;;;;;;5030206;28;20071;-70
2023/07/10 02:46:00;;;;;;;1999.90;999.90;;;17.60;99.90;;;;;;5031059;28;20564;-70
2023/07/10 02:48:26;;;;;;;1999.90;999.90;;;17.60;99.90;;;;;;5005355;28;20041;-70
2023/07/10 02:50:51;;;;;;;1999.90;999.90;;;17.60;99.90;;;;;;5029753;28;20056;-70
2023/07/10 02:53:17;;;;;;;1999.90;999.90;;;17.60;99.90;;;;;;5024911;28;20051;-70
2023/07/10 02:55:43;;;;;;;1999.90;999.90;;;17.60;99.90;;;;;;5016853;28;20488;-70
2023/07/10 02:58:09;;;;;;;1999.90;999.90;;;17.60;99.90;;;;;;5029898;28;20379;-70
2023/07/10 03:00:34;;;;;;;1999.90;999.90;;;17.60;99.90;;;;;;5036751;28;20045;-70
2023/07/10 03:03:00;;;;;;;1999.90;999.90;;;17.60;99.90;;;;;;5033547;28;20057;-70
2023/07/10 03:05:26;;;;;;;1999.90;999.90;;;17.60;99.90;;;;;;5034211;28;20048;-70
2023/07/10 03:07:52;;;;;;;1999.90;999.90;;;17.60;99.90;;;;;;5048370;28;20041;-70
2023/07/10 03:10:19;;;;;;;1999.90;999.90;;;17.60;99.90;;;;;;5033165;28;20045;-70
2023/07/10 03:12:45;;;;;;;1999.90;999.90;;;17.60;99.90;;;;;;5034902;28;20037;-70
2023/07/10 03:15:11;;;;;;;1999.90;999.90;;;17.60;99.90;;;;;;5033547;28;20079;-70
2023/07/10 03:17:36;;;;;;;1999.90;999.90;;;17.60;99.90;;;;;;5036716;28;20072;-70
2023/07/10 03:20:03;;;;;;;1999.90;999.90;;;17.60;99.90;;;;;;5035059;28;20051;-70
2023/07/10 03:22:29;;;;;;;1999.90;999.90;;;17.60;99.90;;;;;;5017617;28;20041;-70
2023/07/10 03:24:55;;;;;;;1999.90;999.90;;;17.60;99.90;;;;;;5034939;28;20098;-70
2023/07/10 03:27:22;;;;;;;1999.90;999.90;;;17.60;99.90;;;;;;5018572;28;20037;-70
2023/07/10 03:29:48;;;;;;;1999.90;999.90;;;17.60;99.90;;;;;;5034487;28;20041;-70
2023/07/10 03:32:14;;;;;;;1999.90;999.90;;;17.50;99.90;;;;;;5017657;28;20386;-70
2023/07/10 03:34:39;;;;;;;1999.90;999.90;;;17.50;99.90;;;;;;5034174;28;20040;-70
2023/07/10 03:37:06;;;;;;;1999.90;999.90;;;17.50;99.90;;;;;;5033623;28;20692;-70
2023/07/10 03:39:32;;;;;;;1999.90;999.90;;;17.50;99.90;;;;;;5035572;28;20036;-70
2023/07/10 03:41:58;;;;;;;1999.90;999.90;;;17.50;99.90;;;;;;5049977;28;20056;-70
2023/07/10 03:44:23;;;;;;;1999.90;999.90;;;17.50;99.90;;;;;;5034155;28;23308;-70
2023/07/10 03:46:49;;;;;;;1999.90;999.90;;;17.40;99.90;;;;;;5034907;28;20489;-70
2023/07/10 03:49:15;;;;;;;1999.90;999.90;;;17.40;99.90;;;;;;5052230;28;20497;-70
2023/07/10 03:51:41;;;;;;;1999.90;999.90;;;17.40;99.90;;;;;;5029692;28;20044;-70
2023/07/10 03:54:07;;;;;;;1999.90;999.90;;;17.40;99.90;;;;;;5033167;28;20041;-70
2023/07/10 03:56:34;;;;;;;1999.90;999.90;;;17.30;99.90;;;;;;5038021;28;20060;-70
2023/07/10 03:58:59;;;;;;;1999.90;999.90;;;17.30;99.90;;;;;;5034333;28;20971;-70
2023/07/10 04:01:25;;;;;;;1999.90;999.90;;;17.30;99.90;;;;;;5036210;28;20492;-70
2023/07/10 04:03:51;;;;;;;1999.90;999.90;;;17.30;99.90;;;;;;5031099;28;20065;-70
2023/07/10 04:06:17;;;;;;;1999.90;999.90;;;17.30;99.90;;;;;;5027240;28;20045;-70
2023/07/10 04:08:44;;;;;;;1999.90;999.90;;;17.30;99.90;;;;;;5035810;28;20033;-70
2023/07/10 04:11:21;;;;;;;1999.90;999.90;;;17.40;99.90;;;;;;5037739;28;20048;-70
2023/07/10 04:13:48;;;;;;;1999.90;999.90;;;17.40;99.90;;;;;;5036212;28;20041;-70
2023/07/10 04:16:26;;;;;;;1999.90;999.90;;;17.40;99.90;;;;;;5037326;28;20076;-70
2023/07/10 04:18:53;;;;;;;1999.90;999.90;;;17.40;99.90;;;;;;5035149;28;20053;-70
2023/07/10 04:21:21;;;;;;;1999.90;999.90;;;17.50;99.90;;;;;;5033280;28;20083;-70
2023/07/10 04:23:47;;;;;;;1999.90;999.90;;;17.50;99.90;;;;;;5037871;28;20102;-70
2023/07/10 04:26:25;;;;;;;1999.90;999.90;;;17.60;99.90;;;;;;5036721;28;20041;-70
2023/07/10 04:28:55;;;;;;;1999.90;999.90;;;17.70;99.90;;;;;;5037655;28;20124;-70
2023/07/10 04:31:21;;;;;;;1999.90;999.90;;;17.70;99.90;;;;;;5015891;28;20111;-70
2023/07/10 04:33:49;;;;;;;1999.90;999.90;;;17.80;99.90;;;;;;5018657;28;20049;-70
2023/07/10 04:36:15;;;;;;;1999.90;999.90;;;17.90;99.90;;;;;;5036219;28;20110;-70
2023/07/10 04:38:40;;;;;;;1999.90;999.90;;;17.90;99.90;;;;;;5036726;28;20489;-70
2023/07/10 04:41:10;;;;;;;1999.90;999.90;;;18.00;99.90;;;;;;5015622;28;20117;-70
2023/07/10 04:43:35;;;;;;;1999.90;999.90;;;18.00;99.90;;;;;;5034579;28;20040;-70
2023/07/10 04:46:04;;;;;;;1999.90;999.90;;;18.00;99.90;;;;;;5036648;28;20079;-70
2023/07/10 04:48:30;;;;;;;1999.90;999.90;;;18.00;99.90;;;;;;5038114;28;20041;-70
2023/07/10 04:50:59;;;;;;;1999.90;999.90;;;18.00;99.90;;;;;;5035814;28;20392;-70
2023/07/10 04:53:25;;;;;;;1999.90;999.90;;;17.90;99.90;;;;;;5035663;28;20123;-70
2023/07/10 04:55:52;;;;;;;1999.90;999.90;;;17.90;99.90;;;;;;5037870;28;20041;-70
2023/07/10 04:58:18;;;;;;;1999.90;999.90;;;17.90;99.90;;;;;;5034373;28;20045;-71
2023/07/10 05:00:44;;;;;;;1999.90;999.90;;;17.90;99.90;;;;;;5032853;28;20045;-71
2023/07/10 05:03:10;;;;;;;1999.90;999.90;;;17.90;99.90;;;;;;5051109;28;20079;-71
2023/07/10 05:05:35;;;;;;;1999.90;999.90;;;17.90;99.90;;;;;;5031762;28;20152;-71
2023/07/10 05:08:02;;;;;;;1999.90;999.90;;;17.90;99.90;;;;;;5036095;28;20032;-71
2023/07/10 05:10:28;;;;;;;1999.90;999.90;;;17.90;99.90;;;;;;5035653;28;20388;-71
2023/07/10 05:12:54;;;;;;;1999.90;999.90;;;17.90;99.90;;;;;;5034935;28;20115;-71
2023/07/10 05:15:20;;;;;;;1999.90;999.90;;;18.00;99.90;;;;;;5034018;28;20344;-71
2023/07/10 05:17:46;;;;;;;1999.90;999.90;;;18.10;99.90;;;;;;5036262;28;20040;-71
2023/07/10 05:20:12;;;;;;;1999.90;999.90;;;18.10;99.90;;;;;;5032826;28;20136;-71
2023/07/10 05:22:39;;;;;;;1999.90;999.90;;;18.20;99.90;;;;;;5039428;28;20102;-71
2023/07/10 05:25:05;;;;;;;1999.90;999.90;;;18.20;99.90;;;;;;5029315;28;20052;-71
2023/07/10 05:27:31;;;;;;;1999.90;999.90;;;18.30;99.90;;;;;;5038340;28;20037;-71
2023/07/10 05:29:57;;;;;;;1999.90;999.90;;;18.40;99.90;;;;;;5037149;28;20044;-71
2023/07/10 05:32:22;;;;;;;1999.90;999.90;;;18.50;99.90;;;;;;5020516;28;20291;-71
2023/07/10 05:34:48;;;;;;;1999.90;999.90;;;18.50;99.90;;;;;;5046612;28;20822;-71
2023/07/10 05:37:14;;;;;;;1999.90;999.90;;;18.50;99.90;;;;;;5024551;28;20072;-71
2023/07/10 05:39:39;;;;;;;1999.90;999.90;;;18.60;99.90;;;;;;5027271;28;20590;-71
2023/07/10 05:42:07;;;;;;;1999.90;999.90;;;18.60;99.90;;;;;;5041630;28;20542;-71
2023/07/10 05:44:33;;;;;;;1999.90;999.90;;;18.60;99.90;;;;;;5024413;28;20057;-71
2023/07/10 05:46:59;;;;;;;1999.90;999.90;;;18.50;99.90;;;;;;5037672;28;20583;-71
2023/07/10 05:49:24;;;;;;;1999.90;999.90;;;18.60;99.90;;;;;;5035522;28;20379;-71
2023/07/10 05:51:51;;;;;;;1999.90;999.90;;;18.60;99.90;;;;;;5043474;28;20048;-70
2023/07/10 05:54:17;;;;;;;1999.90;999.90;;;18.70;99.90;;;;;;5040467;28;20577;-71
2023/07/10 05:56:43;;;;;;;1999.90;999.90;;;18.70;99.90;;;;;;5047251;28;20102;-71
2023/07/10 05:59:13;;;;;;;1999.90;999.90;;;18.80;99.90;;;;;;5038601;28;20052;-71
2023/07/10 06:01:39;;;;;;;1999.90;999.90;;;18.70;99.90;;;;;;5049309;28;20073;-71
2023/07/10 06:04:05;;;;;;;1999.90;999.90;;;18.70;99.90;;;;;;5034563;28;20233;-71
2023/07/10 06:06:30;;;;;;;1999.90;999.90;;;18.70;99.90;;;;;;5043284;28;20033;-71
2023/07/10 06:08:56;;;;;;;1999.90;999.90;;;18.70;99.90;;;;;;5051534;28;20064;-71
2023/07/10 06:11:22;;;;;;;1999.90;999.90;;;18.70;99.90;;;;;;5043645;28;20045;-71
2023/07/10 06:13:47;;;;;;;1999.90;999.90;;;18.70;99.90;;;;;;5044242;28;20075;-71
2023/07/10 06:16:14;;;;;;;1999.90;999.90;;;18.70;99.90;;;;;;5043439;28;20044;-71
2023/07/10 06:18:40;;;;;;;1999.90;999.90;;;18.60;99.90;;;;;;5041788;28;20041;-70
2023/07/10 06:21:07;;;;;;;1999.90;999.90;;;18.70;99.90;;;;;;5028038;28;20032;-71
2023/07/10 06:23:33;;;;;;;1999.90;999.90;;;18.90;99.90;;;;;;5039819;28;20041;-71
2023/07/10 06:25:59;;;;;;;1999.90;999.90;;;19.10;99.90;;;;;;5041488;28;20056;-71
2023/07/10 06:28:26;;;;;;;1999.90;999.90;;;19.30;99.90;;;;;;5021380;28;20161;-71
2023/07/10 06:31:01;;;;;;;1999.90;999.90;;;19.50;99.90;;;;;;5040650;28;20033;-70
2023/07/10 06:33:28;;;;;;;1999.90;999.90;;;19.80;99.90;;;;;;5036603;28;20052;-71
2023/07/10 06:35:54;;;;;;;1999.90;999.90;;;20.30;99.90;;;;;;5033249;28;20052;-71
2023/07/10 06:38:20;;;;;;;1999.90;999.90;;;20.80;99.90;;;;;;5042349;28;20044;-71
2023/07/10 06:40:50;;;;;;;1999.90;999.90;;;21.70;99.90;;;;;;5046471;28;20137;-71
2023/07/10 06:43:17;;;;;;;1999.90;999.90;;;22.50;99.90;;;;;;5038030;28;20041;-71
2023/07/10 06:45:44;;;;;;;1999.90;999.90;;;23.00;99.90;;;;;;5029639;28;20105;-71
2023/07/10 06:48:10;;;;;;;239.05;228.70;;;23.50;99.90;;;;;;5038255;28;20151;-71
2023/07/10 06:50:36;;;;;;;255.43;243.82;;;23.90;99.90;;;;;;5040151;28;20116;-71
2023/07/10 06:53:02;;;;;;;345.30;328.70;;;24.40;99.90;;;;;;5040852;28;20037;-71
2023/07/10 06:55:27;;;;;;;528.53;499.40;;;24.80;99.90;;;;;;5042153;28;20041;-71
2023/07/10 06:57:53;;;;;;;649.33;609.85;;;25.30;99.90;;;;;;5045663;28;20122;-71
2023/07/10 07:00:19;;;;;;;474.98;449.35;;;25.70;99.90;;;;;;5051178;28;20088;-71
2023/07/10 07:02:45;;;;;;;497.35;471.08;;;25.80;99.90;;;;;;5044764;28;20051;-71
2023/07/10 07:05:11;;;;;;;510.83;483.10;;;25.80;99.90;;;;;;5020758;28;20064;-71
2023/07/10 07:07:38;;;;;;;494.17;468.30;;;26.00;99.90;;;;;;5046310;28;20068;-72
2023/07/10 07:10:06;;;;;;;456.13;432.70;;;26.10;99.90;;;;;;5027944;28;20048;-72
2023/07/10 07:12:31;;;;;;;470.25;445.83;;;25.80;99.90;;;;;;5024326;28;20076;-72
2023/07/10 07:14:57;;;;;;;446.38;424.27;;;25.80;99.90;;;;;;5045102;28;20076;-71
2023/07/10 07:17:23;;;;;;;387.80;369.15;;;25.70;99.90;;;;;;5042853;28;20080;-71
2023/07/10 07:19:48;;;;;;;381.83;363.05;;;25.50;99.90;;;;;;5028457;28;20560;-71
2023/07/10 07:22:14;;;;;;;433.40;411.35;;;25.70;99.90;;;;;;5036338;28;20394;-72
2023/07/10 07:24:40;;;;;;;494.15;468.30;;;26.00;99.90;;;;;;5037210;28;20124;-71
2023/07/10 07:27:06;;;;;;;683.28;641.55;;;26.40;99.90;;;;;;5045319;28;20037;-72
2023/07/10 07:29:31;;;;;;;651.05;611.42;;;26.60;99.90;;;;;;5045463;28;20037;-71
2023/07/10 07:31:57;;;;;;;656.30;617.45;;;26.50;99.90;;;;;;5040642;28;20045;-71
2023/07/10 07:34:23;;;;;;;817.28;762.60;;;26.40;99.90;;;;;;5026488;28;20056;-71
2023/07/10 07:36:49;;;;;;;743.40;696.65;;;26.00;99.90;;;;;;5036948;28;20452;-71
2023/07/10 07:39:15;;;;;;;769.92;720.65;;;25.80;99.90;;;;;;5044793;28;20401;-71
2023/07/10 07:41:41;;;;;;;481.95;454.25;;;26.00;99.90;;;;;;5044248;28;20045;-71
2023/07/10 07:44:07;;;;;;;311.55;295.33;;;26.30;99.90;;;;;;5037970;28;20125;-71
2023/07/10 07:46:33;;;;;;;353.20;334.35;;;26.40;99.90;;;;;;5013800;28;20521;-71
2023/07/10 07:48:59;;;;;;;499.42;471.33;;;26.10;99.90;;;;;;5048537;28;20045;-71
2023/07/10 07:51:25;;;;;;;621.85;583.60;;;26.00;99.90;;;;;;5048445;28;20098;-71
2023/07/10 07:54:11;;;;;;;364.25;344.38;;;26.20;99.90;;;;;;5046485;28;20045;-71
2023/07/10 07:56:37;;;;;;;765.50;715.33;;;25.60;99.90;;;;;;5043880;28;20459;-71
2023/07/10 07:59:03;;;;;;;287.13;272.15;;;25.30;99.90;;;;;;5041018;28;20045;-71
2023/07/10 08:01:29;;;;;;;590.83;554.55;;;25.20;99.90;;;;;;5047506;28;20044;-71
2023/07/10 08:03:56;;;;;;;462.38;434.92;;;24.90;99.90;;;;;;5043525;28;20049;-72
2023/07/10 08:06:26;;;;;;;611.35;572.55;;;25.00;99.90;;;;;;5016804;28;20080;-71
2023/07/10 08:08:51;;;;;;;572.25;536.40;;;25.10;99.90;;;;;;5031608;28;20064;-72
2023/07/10 08:11:20;;;;;;;767.38;716.95;;;25.10;99.90;;;;;;5035998;28;20079;-71
2023/07/10 08:13:46;;;;;;;650.03;609.15;;;25.40;99.90;;;;;;5018535;28;20120;-71
2023/07/10 08:16:12;;;;;;;285.52;269.88;;;25.10;99.90;;;;;;5042707;28;20060;-70
2023/07/10 08:18:40;;;;;;;417.42;392.58;;;24.80;99.90;;;;;;5041219;28;20041;-70
2023/07/10 08:21:08;;;;;;;341.20;322.42;;;24.40;99.90;;;;;;5024835;28;20037;-70
2023/07/10 08:23:33;;;;;;;173.43;164.80;;;24.10;99.90;;;;;;5043280;28;20112;-70
2023/07/10 08:26:05;;;;;;;189.43;179.63;;;24.50;99.90;;;;;;5048081;28;20076;-71
2023/07/10 08:28:31;;;;;;;275.70;260.63;;;24.70;99.90;;;;;;5042348;28;20041;-70
2023/07/10 08:30:59;;;;;;;569.97;533.42;;;24.70;99.90;;;;;;5043931;28;20045;-71
2023/07/10 08:33:25;;;;;;;257.65;244.30;;;25.20;99.90;;;;;;5041659;28;20043;-70
2023/07/10 08:36:03;;;;;;;297.45;281.02;;;25.00;99.90;;;;;;5035172;28;20044;-71
2023/07/10 08:38:30;;;;;;;267.98;253.20;;;24.90;99.90;;;;;;5039136;28;20512;-71
2023/07/10 08:41:11;;;;;;;261.25;246.77;;;24.90;99.90;;;;;;5041731;28;20053;-70
2023/07/10 08:43:45;;;;;;;486.33;456.75;;;25.30;99.90;;;;;;5035603;28;20086;-71
2023/07/10 08:46:16;;;;;;;213.07;201.77;;;25.20;99.90;;;;;;5012410;28;20129;-70
2023/07/10 08:49:09;;;;;;;260.10;245.93;;;25.70;99.90;;;;;;5026568;28;20049;-71
2023/07/10 08:51:52;;;;;;;103.50;98.28;;;26.00;99.90;;;;;;5039905;28;20508;-70
2023/07/10 08:54:18;;;;;;;188.60;178.85;;;26.10;99.90;;;;;;5035952;28;20405;-70
2023/07/10 08:56:47;;;;;;;178.60;169.65;;;26.10;99.90;;;;;;5042320;28;20633;-70
2023/07/10 09:00:00;;;;;;;172.05;163.40;;;25.80;99.90;;;;;;5031738;28;20507;-70
2023/07/10 09:02:45;;;;;;;111.40;105.38;;;25.50;99.90;;;;;;5019949;28;20057;-71
2023/07/10 09:05:25;;;;;;;87.03;82.75;;;25.80;99.90;;;;;;5043449;28;20053;-70
2023/07/10 09:08:01;;;;;;;160.05;151.63;;;26.10;99.90;;;;;;5032377;28;20060;-71
2023/07/10 09:10:47;;;;;;;86.90;82.68;;;26.20;99.90;;;;;;5029193;28;20045;-70
2023/07/10 09:13:20;;;;;;;172.60;164.15;;;26.50;99.90;;;;;;5040352;28;20099;-70
2023/07/10 09:15:55;;;;;;;98.07;93.18;;;26.70;99.90;;;;;;5044753;28;20041;-70
2023/07/10 09:18:44;;;;;;;138.93;132.07;;;26.60;99.90;;;;;;5044469;28;20049;-69
2023/07/10 09:21:20;;;;;;;97.18;92.28;;;26.10;99.90;;;;;;5050640;28;20053;-71
2023/07/10 09:23:46;;;;;;;186.07;176.43;;;26.00;99.90;;;;;;5025893;28;20053;-71
2023/07/10 09:26:39;;;;;;;178.23;168.98;;;25.70;99.90;;;;;;5046631;28;20497;-70
2023/07/10 09:29:33;;;;;;;110.45;105.18;;;25.80;99.90;;;;;;5031692;28;20051;-69
2023/07/10 09:32:08;;;;;;;159.18;150.85;;;26.20;99.90;;;;;;5023507;28;20040;-70
2023/07/10 09:34:35;;;;;;;100.60;95.45;;;26.50;99.90;;;;;;5039471;28;20059;-70
2023/07/10 09:37:09;;;;;;;110.53;105.18;;;26.50;99.90;;;;;;5047895;28;20041;-70
2023/07/10 09:39:35;;;;;;;89.63;85.35;;;26.40;99.90;;;;;;5045116;28;20124;-70
2023/07/10 09:42:11;;;;;;;253.50;241.35;;;26.40;99.90;;;;;;5029364;28;20615;-69
2023/07/10 09:44:39;;;;;;;201.38;190.95;;;26.00;99.90;;;;;;5041379;28;20048;-70
2023/07/10 09:47:10;;;;;;;362.27;343.15;;;26.00;99.90;;;;;;5047961;28;20402;-70
2023/07/10 09:49:43;;;;;;;83.53;79.28;;;26.20;99.90;;;;;;5042276;28;20041;-70
2023/07/10 09:52:26;;;;;;;125.45;119.20;;;26.40;99.90;;;;;;5026006;28;20044;-70
2023/07/10 09:55:15;;;;;;;106.90;101.30;;;26.50;99.90;;;;;;5032633;28;20056;-70
2023/07/10 09:57:58;;;;;;;68.68;65.28;;;26.30;99.90;;;;;;5026145;28;20393;-70
2023/07/10 10:00:26;;;;;;;144.32;136.50;;;26.10;99.90;;;;;;5025515;28;20076;-70
2023/07/10 10:03:08;;;;;;;87.88;83.45;;;26.00;99.90;;;;;;5035417;28;20461;-70
2023/07/10 10:05:40;;;;;;;76.95;73.15;;;25.90;99.90;;;;;;5020053;28;20049;-69
2023/07/10 10:08:36;;;;;;;83.18;79.22;;;26.10;99.90;;;;;;5012753;28;20064;-69
2023/07/10 10:11:05;;;;;;;87.00;82.35;;;26.00;99.90;;;;;;5029536;28;20094;-69
2023/07/10 10:13:40;;;;;;;174.15;165.13;;;26.00;99.90;;;;;;5029609;28;20401;-69
2023/07/10 10:16:27;;;;;;;167.43;159.82;;;26.00;99.90;;;;;;5046057;28;20047;-70
2023/07/10 10:19:01;;;;;;;164.95;157.40;;;26.10;99.90;;;;;;5036771;28;20220;-69
2023/07/10 10:21:33;;;;;;;127.85;121.93;;;25.90;99.90;;;;;;5045464;28;20446;-69
2023/07/10 10:24:05;;;;;;;165.15;157.45;;;25.60;99.90;;;;;;5053938;28;20044;-70
2023/07/10 10:26:39;;;;;;;246.07;232.68;;;25.20;99.90;;;;;;5046908;28;20044;-69
2023/07/10 10:29:24;;;;;;;130.48;124.10;;;24.80;99.90;;;;;;5024466;28;20040;-69
2023/07/10 10:32:12;;;;;;;155.35;148.25;;;24.80;99.90;;;;;;5058067;28;20043;-69
2023/07/10 10:35:27;;;;;;;130.50;124.40;;;24.60;99.90;;;;;;5035065;28;20076;-69
2023/07/10 10:38:22;;;;;;;187.77;178.32;;;24.60;99.90;;;;;;5020385;28;20040;-69
2023/07/10 10:41:06;;;;;;;;;;;24.80;99.90;;;;;;5023842;28;20496;-69
2023/07/10 10:43:31;;;;;;;114.70;109.45;;;25.20;99.90;;;;;;5040475;28;19927;-69
2023/07/10 10:46:00;;;;;;;85.38;81.30;;;25.60;99.90;;;;;;5037502;28;20079;-70
2023/07/10 10:48:36;;;;;;;103.43;98.22;;;25.90;99.90;;;;;;5038277;28;20041;-69
2023/07/10 10:51:25;;;;;;;95.15;90.60;;;26.00;99.90;;;;;;5036285;28;20051;-69
2023/07/10 10:54:16;;;;;;;108.40;103.13;;;25.70;99.90;;;;;;5018519;28;20135;-69
2023/07/10 10:57:08;;;;;;;167.20;158.75;;;25.50;99.90;;;;;;5016833;28;20183;-69
2023/07/10 11:00:05;;;;;;;75.55;71.53;;;25.40;99.90;;;;;;5046215;28;20045;-69
2023/07/10 11:02:45;;;;;;;148.02;140.65;;;25.20;99.90;;;;;;5022010;28;20044;-69
2023/07/10 11:05:18;;;;;;;99.25;94.35;;;25.30;99.90;;;;;;5020495;28;20143;-70
2023/07/10 11:07:49;;;;;;;88.20;83.55;;;25.40;99.90;;;;;;5020919;28;20099;-69
2023/07/10 11:10:22;;;;;;;107.10;101.47;;;25.60;99.90;;;;;;5021884;28;20793;-70
2023/07/10 11:12:48;;;;;;;45.58;42.97;;;25.80;99.90;;;;;;5033741;28;20398;-70
2023/07/10 11:15:20;;;;;;;135.60;128.10;;;25.60;99.90;;;;;;5033884;28;20052;-69
2023/07/10 11:17:51;;;;;;;199.18;188.60;;;25.60;99.90;;;;;;5036233;28;20049;-69
2023/07/10 11:20:19;;;;;;;130.18;123.68;;;25.70;99.90;;;;;;5056033;28;20080;-70
2023/07/10 11:22:50;;;;;;;84.90;80.00;;;25.80;99.90;;;;;;5008152;28;20049;-69
2023/07/10 11:25:37;;;;;;;39.28;36.88;;;26.00;99.90;;;;;;5044391;28;20095;-69
2023/07/10 11:28:20;;;;;;;63.88;60.67;;;26.30;99.90;;;;;;5031151;28;20096;-69
2023/07/10 11:30:50;;;;;;;43.45;40.92;;;26.40;99.90;;;;;;5046469;28;20044;-69
2023/07/10 11:33:20;;;;;;;72.65;69.03;;;25.90;99.90;;;;;;5049904;28;20082;-69
2023/07/10 11:36:11;;;;;;;33.92;31.70;;;25.30;99.90;;;;;;5042445;28;20448;-69
2023/07/10 11:38:58;;;;;;;78.10;74.25;;;25.30;99.90;;;;;;5046724;28;20073;-69
2023/07/10 11:41:39;;;;;;;54.22;51.30;;;25.70;99.90;;;;;;5042522;28;20044;-69
2023/07/10 11:44:31;;;;;;;58.28;55.28;;;25.70;99.90;;;;;;5031065;28;20056;-69
2023/07/10 11:47:08;;;;;;;60.85;57.75;;;25.60;99.90;;;;;;5046667;28;20040;-69
2023/07/10 11:49:40;;;;;;;127.80;121.35;;;25.80;99.90;;;;;;5049156;28;20075;-70
2023/07/10 11:52:15;;;;;;;212.45;200.15;;;25.60;99.90;;;;;;5038341;28;20068;-70
2023/07/10 11:54:46;;;;;;;204.00;193.50;;;25.50;99.90;;;;;;5049270;28;20390;-69
2023/07/10 11:57:15;;;;;;;144.98;137.68;;;25.40;99.90;;;;;;5039183;28;20045;-70
2023/07/10 11:59:46;;;;;;;122.63;116.60;;;25.60;99.90;;;;;;5042702;28;20102;-70
2023/07/10 12:02:27;;;;;;;100.18;95.50;;;26.00;99.90;;;;;;5037287;28;20052;-70
2023/07/10 12:04:54;;;;;;;120.65;114.88;;;26.00;99.90;;;;;;5046508;28;20056;-70
2023/07/10 12:07:20;;;;;;;482.35;452.33;;;25.80;99.90;;;;;;5038407;28;20041;-70
2023/07/10 12:09:50;;;;;;;185.82;176.35;;;25.70;99.90;;;;;;5045491;28;20043;-69
2023/07/10 12:12:16;;;;;;;75.97;72.28;;;25.70;99.90;;;;;;5046278;28;20231;-69
2023/07/10 12:14:42;;;;;;;292.33;277.83;;;25.80;99.90;;;;;;5044503;28;20728;-69
2023/07/10 12:17:16;;;;;;;493.10;462.83;;;25.90;99.90;;;;;;5049152;28;20094;-69
2023/07/10 12:19:42;;;;;;;373.48;354.63;;;26.10;99.90;;;;;;5048697;28;20045;-69